Time;durP1;ratioP1;P1;durP2;ratioP2;P2;SDS_P1;SDS_P2;PMS_P1;PMS_P2;Temp;Humidity;BMP_temperature;BMP_pressure;BME280_temperature;BME280_humidity;BME280_pressure;Samples;Min_cycle;Max_cycle;Signal;HPM_P1;HPM_P2
2023/06/23 00:01:26;;;;;;;4.18;1.90;;;;;;;17.02;100.00;94104.44;5031015;28;20157;-60
2023/06/23 00:03:54;;;;;;;8.85;4.45;;;;;;;16.97;100.00;94116.91;5031388;28;20041;-59
2023/06/23 00:06:21;;;;;;;3.20;1.97;;;;;;;17.03;100.00;94123.41;5030873;28;20050;-60
2023/06/23 00:08:49;;;;;;;4.38;1.70;;;;;;;16.93;100.00;94133.66;5031219;28;20048;-61
2023/06/23 00:11:16;;;;;;;3.53;1.55;;;;;;;17.09;100.00;94129.91;5030496;28;20041;-61
2023/06/23 00:13:43;;;;;;;3.65;1.65;;;;;;;17.23;100.00;94139.72;5031313;28;20056;-60
2023/06/23 00:16:09;;;;;;;3.20;1.70;;;;;;;17.26;100.00;94138.00;5030966;28;20063;-63
2023/06/23 00:18:39;;;;;;;3.43;1.50;;;;;;;17.17;100.00;94145.06;5031523;28;20047;-60
2023/06/23 00:21:07;;;;;;;3.65;1.60;;;;;;;17.19;100.00;94146.63;5031263;28;20053;-58
2023/06/23 00:23:35;;;;;;;4.80;1.90;;;;;;;17.12;100.00;94145.66;5030024;28;20099;-60
2023/06/23 00:26:04;;;;;;;4.65;1.80;;;;;;;17.06;100.00;94147.44;5031158;28;20048;-59
2023/06/23 00:28:31;;;;;;;3.30;1.60;;;;;;;16.58;100.00;94152.31;5029700;28;20048;-60
2023/06/23 00:30:57;;;;;;;2.77;1.50;;;;;;;16.29;100.00;94163.56;5036363;28;20049;-59
2023/06/23 00:33:24;;;;;;;4.85;1.90;;;;;;;16.16;100.00;94160.84;5030508;28;20486;-60
2023/06/23 00:35:51;;;;;;;4.60;1.55;;;;;;;16.16;100.00;94160.84;5030731;28;20049;-61
2023/06/23 00:38:18;;;;;;;2.85;1.42;;;;;;;15.96;100.00;94164.63;5029934;28;20054;-59
2023/06/23 00:40:44;;;;;;;2.53;1.40;;;;;;;16.20;100.00;94169.00;5029623;28;20528;-59
2023/06/23 00:43:11;;;;;;;3.90;1.60;;;;;;;16.31;100.00;94159.13;5030282;28;20045;-60
2023/06/23 00:45:38;;;;;;;3.80;1.58;;;;;;;16.24;100.00;94161.34;5030677;28;20440;-59
2023/06/23 00:48:05;;;;;;;4.03;1.52;;;;;;;16.06;100.00;94168.28;5025484;28;20113;-61
2023/06/23 00:50:32;;;;;;;3.63;1.75;;;;;;;16.29;100.00;94166.34;5010099;28;20887;-60
2023/06/23 00:52:59;;;;;;;4.25;1.63;;;;;;;16.21;100.00;94162.25;5026455;28;20048;-63
2023/06/23 00:55:28;;;;;;;2.93;1.50;;;;;;;16.11;100.00;94159.38;5029964;28;20049;-60
2023/06/23 00:57:56;;;;;;;3.58;1.85;;;;;;;15.93;100.00;94159.19;5030649;28;20052;-63
2023/06/23 01:00:27;;;;;;;3.58;1.80;;;;;;;15.96;100.00;94158.31;5030333;28;20037;-59
2023/06/23 01:02:59;;;;;;;3.33;1.60;;;;;;;16.24;100.00;94161.34;5030388;28;20049;-60
2023/06/23 01:05:39;;;;;;;3.25;1.48;;;;;;;16.35;100.00;94162.56;5029948;28;20050;-60
2023/06/23 01:08:30;;;;;;;3.43;1.40;;;;;;;16.35;100.00;94170.09;5061590;28;20079;-60
2023/06/23 01:11:05;;;;;;;3.25;1.42;;;;;;;16.42;100.00;94167.09;5030721;28;20052;-62
2023/06/23 01:13:41;;;;;;;3.97;1.40;;;;;;;16.54;100.00;94168.25;5016930;28;20044;-60
2023/06/23 01:16:13;;;;;;;3.67;1.48;;;;;;;16.57;100.00;94175.69;5029506;28;20474;-60
2023/06/23 01:18:45;;;;;;;2.75;1.30;;;;;;;16.13;100.00;94176.31;5030110;28;20101;-62
2023/06/23 01:21:16;;;;;;;16.50;10.40;;;;;;;16.28;100.00;94179.41;5029176;28;20048;-60
2023/06/23 01:24:02;;;;;;;5.90;1.45;;;;;;;16.07;100.00;94174.56;5029828;28;20057;-59
2023/06/23 01:26:52;;;;;;;5.82;1.40;;;;;;;15.83;100.00;94183.22;5029108;28;20044;-60
2023/06/23 01:29:28;;;;;;;2.13;1.00;;;;;;;15.87;100.00;94186.66;5017656;28;20044;-62
2023/06/23 01:32:16;;;;;;;2.30;1.13;;;;;;;16.13;100.00;94197.72;5033929;28;20041;-61
2023/06/23 01:34:46;;;;;;;2.73;1.10;;;;;;;16.09;100.00;94208.88;5029179;28;20076;-62
2023/06/23 01:37:20;;;;;;;2.20;1.20;;;;;;;15.93;100.00;94201.47;5028765;28;20075;-59
2023/06/23 01:39:53;;;;;;;2.05;1.10;;;;;;;16.14;100.00;94210.34;5028935;28;20033;-59
2023/06/23 01:42:25;;;;;;;2.28;1.10;;;;;;;16.15;100.00;94209.88;5027970;28;20045;-62
2023/06/23 01:44:56;;;;;;;2.30;1.20;;;;;;;16.07;100.00;94216.09;5029528;28;20041;-59
2023/06/23 01:47:30;;;;;;;2.30;1.23;;;;;;;16.01;100.00;94212.34;5028794;28;20045;-59
2023/06/23 01:50:00;;;;;;;3.67;1.60;;;;;;;16.08;100.00;94207.34;5029550;28;20405;-59
2023/06/23 01:52:29;;;;;;;3.28;1.70;;;;;;;15.92;100.00;94210.25;5015830;28;20046;-59
2023/06/23 01:54:57;;;;;;;3.15;1.77;;;;;;;15.88;100.00;94217.88;5029341;28;20071;-59
2023/06/23 01:57:26;;;;;;;3.45;1.95;;;;;;;15.94;100.00;94211.34;5028544;28;20053;-59
2023/06/23 01:59:55;;;;;;;5.77;2.17;;;;;;;15.86;100.00;94218.31;5029182;28;20512;-59
2023/06/23 02:02:24;;;;;;;3.40;1.90;;;;;;;16.07;100.00;94221.63;5027538;28;20053;-59
2023/06/23 02:04:53;;;;;;;4.03;2.20;;;;;;;16.00;100.00;94221.84;5029349;28;20051;-59
2023/06/23 02:07:22;;;;;;;4.40;2.47;;;;;;;15.84;100.00;94226.28;5028450;28;20041;-59
2023/06/23 02:09:50;;;;;;;3.13;1.95;;;;;;;15.80;100.00;94242.22;5029310;28;20041;-59
2023/06/23 02:12:18;;;;;;;4.17;2.43;;;;;;;15.73;100.00;94245.19;5028515;28;20037;-59
2023/06/23 02:14:46;;;;;;;3.80;2.55;;;;;;;15.73;100.00;94243.19;5028965;28;20052;-59
2023/06/23 02:17:14;;;;;;;5.28;3.00;;;;;;;15.81;100.00;94246.53;5028470;28;20051;-59
2023/06/23 02:19:45;;;;;;;6.05;3.47;;;;;;;15.87;100.00;94247.53;5028852;28;20139;-59
2023/06/23 02:22:15;;;;;;;5.97;4.07;;;;;;;15.68;100.00;94251.28;5028641;28;20748;-62
2023/06/23 02:24:45;;;;;;;6.00;4.00;;;;;;;15.58;100.00;94255.91;5028723;28;20041;-62
2023/06/23 02:27:12;;;;;;;8.30;4.38;;;;;;;15.60;100.00;94247.16;5028205;28;20049;-63
2023/06/23 02:29:40;;;;;;;6.20;4.18;;;;;;;15.98;100.00;94250.75;5030178;28;20037;-59
2023/06/23 02:32:08;;;;;;;8.38;5.57;;;;;;;15.65;100.00;94252.13;5025218;28;20366;-59
2023/06/23 02:34:35;;;;;;;9.45;5.10;;;;;;;15.71;100.00;94255.91;5010742;28;20406;-62
2023/06/23 02:37:04;;;;;;;7.60;5.43;;;;;;;15.52;100.00;94250.13;5022017;28;20441;-60
2023/06/23 02:39:42;;;;;;;9.10;5.97;;;;;;;15.47;100.00;94261.72;5027614;28;20071;-62
2023/06/23 02:42:14;;;;;;;8.50;6.10;;;;;;;15.60;100.00;94258.22;5028265;28;20444;-62
2023/06/23 02:44:59;;;;;;;9.32;5.80;;;;;;;15.75;100.00;94262.13;5028710;28;20037;-59
2023/06/23 02:47:29;;;;;;;9.23;6.38;;;;;;;15.67;100.00;94267.06;5028037;28;20059;-60
2023/06/23 02:50:02;;;;;;;9.80;6.60;;;;;;;15.60;100.00;94263.75;5028474;28;20039;-61
2023/06/23 02:52:35;;;;;;;9.82;6.68;;;;;;;15.33;100.00;94273.97;5028089;28;20038;-59
2023/06/23 02:55:05;;;;;;;9.85;6.45;;;;;;;15.44;100.00;94270.13;5028639;28;20064;-62
2023/06/23 02:57:33;;;;;;;10.77;7.10;;;;;;;15.12;100.00;94272.56;5027746;28;20044;-61
2023/06/23 03:00:06;;;;;;;7.95;5.68;;;;;;;15.42;100.00;94280.88;5028241;28;20422;-60
2023/06/23 03:02:34;;;;;;;8.60;5.77;;;;;;;15.34;100.00;94286.56;5027608;28;21628;-59
2023/06/23 03:05:02;;;;;;;8.88;5.65;;;;;;;15.52;100.00;94286.09;5028476;28;20044;-59
2023/06/23 03:07:29;;;;;;;8.70;6.15;;;;;;;15.59;100.00;94285.09;5027664;28;20042;-59
2023/06/23 03:09:56;;;;;;;8.02;5.68;;;;;;;15.60;100.00;94286.66;5028031;28;20049;-59
2023/06/23 03:12:23;;;;;;;9.60;5.90;;;;;;;15.61;100.00;94284.66;5027629;28;20050;-62
2023/06/23 03:14:51;;;;;;;8.70;5.80;;;;;;;15.40;100.00;94288.81;5028069;28;20053;-60
2023/06/23 03:17:24;;;;;;;10.10;7.00;;;;;;;15.24;100.00;94290.41;5027839;28;20053;-62
2023/06/23 03:20:07;;;;;;;9.55;6.53;;;;;;;15.51;100.00;94297.56;5028321;28;20056;-59
2023/06/23 03:22:48;;;;;;;9.20;6.07;;;;;;;15.59;100.00;94296.16;5027203;28;20090;-60
2023/06/23 03:25:22;;;;;;;10.60;6.70;;;;;;;15.59;100.00;94304.47;5027536;28;20042;-59
2023/06/23 03:27:51;;;;;;;9.67;6.73;;;;;;;15.65;100.00;94311.00;5022428;28;20131;-61
2023/06/23 03:30:36;;;;;;;11.10;7.00;;;;;;;15.68;100.00;94318.44;5028563;28;20038;-60
2023/06/23 03:33:10;;;;;;;10.52;6.68;;;;;;;15.66;100.00;94328.41;5017236;28;20042;-63
2023/06/23 03:35:44;;;;;;;11.45;8.63;;;;;;;14.96;100.00;94333.41;5007412;28;20577;-59
2023/06/23 03:38:23;;;;;;;12.38;8.40;;;;;;;15.46;100.00;94342.38;5021445;28;20053;-59
2023/06/23 03:41:06;;;;;;;13.63;9.33;;;;;;;15.67;100.00;94344.53;5028217;28;20038;-59
2023/06/23 03:43:42;;;;;;;14.45;8.95;;;;;;;15.43;100.00;94346.78;5059082;28;20207;-59
2023/06/23 03:46:16;;;;;;;11.85;8.25;;;;;;;15.56;100.00;94344.84;5027646;28;20041;-59
2023/06/23 03:48:46;;;;;;;12.95;9.32;;;;;;;15.45;100.00;94347.13;5028005;28;20076;-61
2023/06/23 03:51:16;;;;;;;13.63;9.45;;;;;;;15.30;100.00;94359.78;5027145;28;20045;-59
2023/06/23 03:53:48;;;;;;;14.43;9.80;;;;;;;15.54;100.00;94355.56;5028251;28;20346;-59
2023/06/23 03:56:16;;;;;;;16.58;10.50;;;;;;;15.44;100.00;94364.16;5045686;28;20044;-62
2023/06/23 03:58:45;;;;;;;18.95;12.75;;;;;;;15.01;100.00;94373.56;5028077;28;20056;-59
2023/06/23 04:01:15;;;;;;;16.10;10.40;;;;;;;15.37;100.00;94365.91;5027483;28;20037;-62
2023/06/23 04:03:43;;;;;;;14.93;10.48;;;;;;;15.56;100.00;94371.75;5018116;28;20033;-61
2023/06/23 04:06:13;;;;;;;17.30;11.70;;;;;;;15.43;100.00;94382.72;5031014;28;20429;-59
2023/06/23 04:08:42;;;;;;;15.95;11.23;;;;;;;15.51;100.00;94388.84;5030198;28;20589;-59
2023/06/23 04:11:10;;;;;;;15.85;10.85;;;;;;;15.38;100.00;94389.59;5030990;28;20433;-62
2023/06/23 04:13:38;;;;;;;18.67;12.68;;;;;;;15.29;100.00;94388.63;5031179;28;20046;-62
2023/06/23 04:16:07;;;;;;;19.98;13.43;;;;;;;15.26;100.00;94390.28;5022931;28;20512;-62
2023/06/23 04:18:36;;;;;;;18.93;12.40;;;;;;;15.44;100.00;94397.38;5027865;28;20833;-59
2023/06/23 04:21:06;;;;;;;19.45;13.70;;;;;;;15.36;100.00;94403.06;5030998;28;20045;-62
2023/06/23 04:23:36;;;;;;;20.38;14.15;;;;;;;15.10;100.00;94407.69;5062074;28;20052;-59
2023/06/23 04:26:05;;;;;;;20.48;14.75;;;;;;;15.12;100.00;94405.25;5031187;28;20050;-59
2023/06/23 04:28:34;;;;;;;19.63;13.88;;;;;;;15.08;100.00;94420.38;5030066;28;20157;-59
2023/06/23 04:31:07;;;;;;;20.33;14.17;;;;;;;15.28;100.00;94409.22;5036403;28;20044;-59
2023/06/23 04:33:35;;;;;;;21.90;14.32;;;;;;;15.63;100.00;94420.56;5015186;28;20429;-60
2023/06/23 04:36:16;;;;;;;21.35;14.57;;;;;;;15.84;100.00;94411.72;5011433;28;20052;-60
2023/06/23 04:39:12;;;;;;;23.13;15.52;;;;;;;15.83;100.00;94417.69;5029718;28;21634;-59
2023/06/23 04:41:42;;;;;;;20.55;14.15;;;;;;;16.02;100.00;94421.50;5029867;28;20643;-59
2023/06/23 04:44:12;;;;;;;21.67;15.17;;;;;;;16.10;100.00;94418.09;5061752;28;20482;-59
2023/06/23 04:46:41;;;;;;;19.35;13.13;;;;;;;16.37;100.00;94426.00;5030326;28;20049;-59
2023/06/23 04:49:09;;;;;;;19.52;13.70;;;;;;;16.10;100.00;94429.19;5028629;28;20077;-60
2023/06/23 04:51:43;;;;;;;18.85;13.63;;;;;;;16.22;100.00;94435.16;5030323;28;20406;-60
2023/06/23 04:54:14;;;;;;;21.67;14.70;;;;;;;15.93;100.00;94434.00;5029905;28;20049;-59
2023/06/23 04:56:45;;;;;;;21.37;14.77;;;;;;;16.32;100.00;94442.44;5030252;28;20041;-59
2023/06/23 04:59:15;;;;;;;22.25;15.32;;;;;;;16.44;100.00;94438.91;5029925;28;20049;-59
2023/06/23 05:01:43;;;;;;;20.77;14.40;;;;;;;16.97;100.00;94441.28;5029079;28;20051;-60
2023/06/23 05:04:13;;;;;;;22.20;14.90;;;;;;;17.37;100.00;94426.91;5053894;28;20042;-59
2023/06/23 05:06:42;;;;;;;20.40;14.50;;;;;;;17.57;100.00;94427.41;5027057;28;20150;-61
2023/06/23 05:09:12;;;;;;;22.17;15.43;;;;;;;17.53;100.00;94428.78;5029269;28;20461;-59
2023/06/23 05:11:41;;;;;;;19.10;13.65;;;;;;;17.99;100.00;94434.75;5029687;28;20038;-60
2023/06/23 05:14:08;;;;;;;21.35;13.95;;;;;;;18.11;100.00;94424.78;5029160;28;20144;-59
2023/06/23 05:16:37;;;;;;;20.15;14.23;;;;;;;17.88;100.00;94424.00;5044750;28;20069;-59
2023/06/23 05:19:09;;;;;;;19.90;14.95;;;;;;;18.50;100.00;94419.78;5015351;28;20592;-60
2023/06/23 05:21:37;;;;;;;19.03;14.23;;;;;;;18.33;100.00;94428.34;5029099;28;20054;-59
2023/06/23 05:24:09;;;;;;;18.75;13.55;;;;;;;18.80;100.00;94428.63;5029664;28;20045;-59
2023/06/23 05:26:38;;;;;;;20.83;14.88;;;;;;;17.91;100.00;94445.31;5028978;28;20079;-60
2023/06/23 05:29:08;;;;;;;20.52;15.05;;;;;;;17.52;100.00;94441.06;5029437;28;20044;-59
2023/06/23 05:31:40;;;;;;;21.50;15.35;;;;;;;17.42;100.00;94454.09;5034767;28;20387;-60
2023/06/23 05:34:09;;;;;;;20.67;14.97;;;;;;;17.77;100.00;94445.78;5028972;28;20037;-59
2023/06/23 05:36:37;;;;;;;22.10;14.95;;;;;;;17.92;100.00;94438.53;5029263;28;20402;-62
2023/06/23 05:39:07;;;;;;;21.60;15.82;;;;;;;18.33;100.00;94449.78;5029208;28;20146;-59
2023/06/23 05:41:33;;;;;;;22.40;14.60;;;;;;;18.50;100.00;94442.78;5027135;28;20053;-61
2023/06/23 05:44:00;;;;;;;20.98;15.43;;;;;;;18.52;100.00;94445.13;5061493;28;20047;-59
2023/06/23 05:46:29;;;;;;;20.90;15.03;;;;;;;19.89;100.00;94438.47;5028619;28;20060;-60
2023/06/23 05:49:12;;;;;;;16.40;12.13;;;;;;;20.72;100.00;94435.59;5029183;28;20067;-59
2023/06/23 05:51:40;;;;;;;18.63;14.20;;;;;;;20.82;100.00;94446.75;5015178;28;21079;-59
2023/06/23 05:54:10;;;;;;;16.77;13.43;;;;;;;21.73;100.00;94451.16;5028234;28;20051;-61
2023/06/23 05:56:44;;;;;;;17.13;13.93;;;;;;;21.52;100.00;94444.59;5028647;28;20048;-60
2023/06/23 05:59:24;;;;;;;16.90;14.03;;;;;;;22.08;100.00;94452.59;5011152;28;20073;-59
2023/06/23 06:01:56;;;;;;;20.08;15.55;;;;;;;21.24;100.00;94457.91;5046236;28;20048;-59
2023/06/23 06:04:26;;;;;;;17.00;13.57;;;;;;;21.41;100.00;94455.50;5018877;28;20152;-59
2023/06/23 06:06:56;;;;;;;19.13;15.30;;;;;;;20.74;100.00;94461.03;5025685;28;20056;-59
2023/06/23 06:09:26;;;;;;;17.05;14.10;;;;;;;20.84;100.00;94467.34;5026297;28;20495;-59
2023/06/23 06:11:55;;;;;;;19.23;15.47;;;;;;;20.32;100.00;94464.50;5028656;28;20048;-63
2023/06/23 06:14:23;;;;;;;17.38;14.02;;;;;;;22.14;100.00;94470.25;5025820;28;20051;-58
2023/06/23 06:16:51;;;;;;;19.70;14.20;;;;;;;23.98;96.20;94470.25;5014488;28;20048;-60
2023/06/23 06:19:22;;;;;;;16.58;14.30;;;;;;;23.30;94.42;94469.31;5026893;28;20071;-59
2023/06/23 06:21:52;;;;;;;16.42;13.43;;;;;;;22.94;96.42;94474.03;5017048;28;20045;-60
2023/06/23 06:24:21;;;;;;;17.47;14.53;;;;;;;21.97;100.00;94483.88;5021900;28;20261;-60
2023/06/23 06:26:50;;;;;;;19.75;14.90;;;;;;;21.57;100.00;94487.88;5019905;28;20048;-61
2023/06/23 06:29:18;;;;;;;21.02;16.15;;;;;;;22.70;100.00;94476.19;5027954;28;20574;-60
2023/06/23 06:31:47;;;;;;;17.70;14.27;;;;;;;23.23;95.73;94488.53;5028483;28;20116;-58
2023/06/23 06:34:17;;;;;;;18.73;14.38;;;;;;;22.02;100.00;94491.63;5028143;28;20041;-59
2023/06/23 06:36:45;;;;;;;18.47;14.47;;;;;;;21.50;100.00;94497.34;5028851;28;20037;-58
2023/06/23 06:39:12;;;;;;;18.40;14.43;;;;;;;23.26;97.35;94490.34;5027890;28;20057;-59
2023/06/23 06:41:40;;;;;;;20.70;14.50;;;;;;;24.66;86.44;94480.25;5015739;28;20099;-61
2023/06/23 06:44:07;;;;;;;18.27;14.68;;;;;;;22.81;97.80;94498.75;5014455;28;20483;-62
2023/06/23 06:46:35;;;;;;;16.73;13.48;;;;;;;25.24;81.08;94502.00;5020830;28;20379;-62
2023/06/23 06:49:01;;;;;;;16.87;12.10;;;;;;;24.44;78.85;94494.78;5028123;28;20042;-62
2023/06/23 06:51:29;;;;;;;15.90;12.40;;;;;;;24.15;82.43;94500.53;5028260;28;20041;-63
2023/06/23 06:53:56;;;;;;;14.68;12.48;;;;;;;23.29;84.49;94498.56;5028535;28;20045;-64
2023/06/23 06:56:23;;;;;;;13.43;11.02;;;;;;;22.41;90.17;94513.25;5027026;28;20050;-61
2023/06/23 06:58:51;;;;;;;15.20;12.38;;;;;;;21.70;96.70;94523.97;5028757;28;20052;-61
2023/06/23 07:01:18;;;;;;;14.43;11.50;;;;;;;21.39;99.97;94513.03;5028349;28;20411;-61
2023/06/23 07:03:46;;;;;;;16.20;11.52;;;;;;;21.29;98.53;94518.69;5028983;28;20057;-64
2023/06/23 07:06:13;;;;;;;14.35;11.32;;;;;;;21.31;97.28;94515.44;5028296;28;20045;-61
2023/06/23 07:08:42;;;;;;;13.43;10.65;;;;;;;21.41;95.70;94519.72;5028722;28;20052;-61
2023/06/23 07:11:10;;;;;;;13.77;11.10;;;;;;;21.17;98.13;94516.88;5043497;28;20095;-61
2023/06/23 07:13:37;;;;;;;14.40;11.13;;;;;;;21.25;98.77;94520.06;5043972;28;20378;-65
2023/06/23 07:16:04;;;;;;;15.55;12.35;;;;;;;21.14;98.48;94524.16;5010729;28;20112;-62
2023/06/23 07:18:31;;;;;;;14.27;11.80;;;;;;;20.44;100.00;94517.75;5030577;28;20048;-61
2023/06/23 07:20:58;;;;;;;34.00;12.73;;;;;;;20.58;100.00;94525.47;5028381;28;20049;-61
2023/06/23 07:23:25;;;;;;;20.75;11.52;;;;;;;19.95;100.00;94531.34;5028234;28;20049;-62
2023/06/23 07:25:52;;;;;;;20.87;12.67;;;;;;;20.05;100.00;94531.34;5028916;28;20064;-61
2023/06/23 07:28:20;;;;;;;15.48;11.18;;;;;;;20.51;100.00;94529.34;5059886;28;20039;-65
2023/06/23 07:30:46;;;;;;;15.80;11.48;;;;;;;20.89;100.00;94532.91;5027215;28;20041;-62
2023/06/23 07:33:13;;;;;;;13.70;10.20;;;;;;;21.11;99.99;94539.06;5027926;28;20045;-65
2023/06/23 07:35:40;;;;;;;15.93;11.48;;;;;;;20.63;100.00;94547.19;5028507;28;20042;-61
2023/06/23 07:38:07;;;;;;;13.43;9.70;;;;;;;23.82;89.66;94552.88;5029318;28;20053;-62
2023/06/23 07:40:33;;;;;;;14.63;11.02;;;;;;;26.00;76.33;94548.59;5032558;28;20041;-61
2023/06/23 07:43:00;;;;;;;10.63;8.60;;;;;;;28.47;62.69;94545.41;5032221;28;20033;-63
2023/06/23 07:45:27;;;;;;;11.18;9.63;;;;;;;28.08;62.40;94542.69;5030555;28;20045;-62
2023/06/23 07:47:54;;;;;;;10.63;8.95;;;;;;;29.06;55.01;94546.16;5031050;28;20067;-59
2023/06/23 07:50:20;;;;;;;13.50;11.40;;;;;;;27.89;56.95;94545.28;5030381;28;20038;-60
2023/06/23 07:52:54;;;;;;;10.82;9.25;;;;;;;25.95;64.01;94544.44;5032014;28;20096;-60
2023/06/23 07:55:21;;;;;;;11.32;8.77;;;;;;;27.69;60.35;94549.13;5030219;28;20045;-62
2023/06/23 07:57:48;;;;;;;9.73;8.35;;;;;;;25.60;63.02;94545.47;5032078;28;20043;-60
2023/06/23 08:00:16;;;;;;;11.40;9.00;;;;;;;23.63;74.22;94566.31;5046505;28;20041;-60
2023/06/23 08:02:43;;;;;;;11.73;9.57;;;;;;;22.44;83.39;94571.81;5047252;28;20053;-60
2023/06/23 08:05:10;;;;;;;13.02;9.63;;;;;;;21.82;87.97;94583.66;5046194;28;20041;-60
2023/06/23 08:07:37;;;;;;;10.85;9.10;;;;;;;21.90;86.88;94574.44;5031618;28;20041;-61
2023/06/23 08:10:04;;;;;;;12.05;9.32;;;;;;;22.54;85.54;94578.88;5031473;28;20079;-60
2023/06/23 08:12:31;;;;;;;13.15;10.43;;;;;;;24.90;68.32;94563.44;5031681;28;20049;-64
2023/06/23 08:14:57;;;;;;;10.17;8.03;;;;;;;27.70;56.96;94573.97;5022134;28;20038;-61
2023/06/23 08:17:24;;;;;;;10.68;8.27;;;;;;;30.37;48.29;94560.84;5019919;28;20046;-61
2023/06/23 08:19:51;;;;;;;9.35;8.00;;;;;;;28.30;47.96;94567.25;5029118;28;20041;-64
2023/06/23 08:22:18;;;;;;;10.13;8.52;;;;;;;25.63;56.08;94566.19;5062904;28;20042;-61
2023/06/23 08:24:45;;;;;;;11.05;9.02;;;;;;;23.66;68.26;94587.00;5031401;28;20045;-60
2023/06/23 08:27:12;;;;;;;9.40;8.20;;;;;;;23.89;69.17;94588.16;5030496;28;20141;-63
2023/06/23 08:29:39;;;;;;;9.35;7.60;;;;;;;24.03;68.81;94598.56;5034314;28;20045;-60
2023/06/23 08:32:07;;;;;;;10.27;8.90;;;;;;;23.50;71.05;94597.44;5039972;28;20041;-60
2023/06/23 08:34:33;;;;;;;9.27;8.05;;;;;;;26.05;63.88;94599.22;5029851;28;20155;-65
2023/06/23 08:37:00;;;;;;;9.73;7.90;;;;;;;26.15;61.38;94599.03;5030947;28;20124;-62
2023/06/23 08:39:27;;;;;;;10.27;7.40;;;;;;;27.39;55.93;94594.72;5045619;28;20076;-61
2023/06/23 08:41:54;;;;;;;9.45;8.05;;;;;;;27.35;54.84;94594.19;5030576;28;20049;-63
2023/06/23 08:44:26;;;;;;;8.63;6.93;;;;;;;27.70;52.54;94595.75;5030665;28;20051;-60
2023/06/23 08:46:57;;;;;;;8.88;7.10;;;;;;;29.24;49.53;94592.09;5062879;28;20044;-61
2023/06/23 08:49:38;;;;;;;11.57;9.30;;;;;;;25.84;53.98;94600.59;5029418;28;20067;-61
2023/06/23 08:52:06;;;;;;;8.67;7.77;;;;;;;25.70;58.57;94605.84;5030443;28;20038;-61
2023/06/23 08:54:34;;;;;;;12.13;7.40;;;;;;;26.76;54.52;94609.09;5021644;28;20175;-61
2023/06/23 08:57:03;;;;;;;9.90;7.70;;;;;;;25.38;58.63;94615.53;5030570;28;20048;-61
2023/06/23 08:59:30;;;;;;;9.18;7.65;;;;;;;24.85;61.78;94623.88;5028752;28;20045;-61
2023/06/23 09:01:57;;;;;;;11.23;9.38;;;;;;;23.67;64.89;94622.16;5030389;28;20046;-61
2023/06/23 09:04:24;;;;;;;11.10;9.00;;;;;;;22.75;69.74;94621.00;5029730;28;20080;-62
2023/06/23 09:06:51;;;;;;;11.32;8.07;;;;;;;23.25;71.21;94628.84;5030449;28;20041;-61
2023/06/23 09:09:20;;;;;;;11.63;8.65;;;;;;;23.82;69.39;94617.31;5029496;28;20060;-64
2023/06/23 09:11:48;;;;;;;8.90;7.70;;;;;;;26.29;58.64;94626.25;5030319;28;20041;-62
2023/06/23 09:14:15;;;;;;;11.05;8.20;;;;;;;26.88;54.86;94628.38;5026165;28;20479;-65
2023/06/23 09:16:42;;;;;;;9.30;7.90;;;;;;;26.11;55.53;94630.22;5010712;28;20041;-61
2023/06/23 09:19:09;;;;;;;9.38;7.82;;;;;;;26.41;56.48;94627.09;5019126;28;20079;-61
2023/06/23 09:21:37;;;;;;;9.93;7.32;;;;;;;29.34;48.54;94617.97;5045002;28;20041;-61
2023/06/23 09:24:05;;;;;;;8.77;6.82;;;;;;;30.43;44.06;94618.19;5030020;28;20053;-62
2023/06/23 09:26:48;;;;;;;8.38;7.47;;;;;;;28.76;44.91;94618.75;5028877;28;20558;-62
2023/06/23 09:29:22;;;;;;;9.27;6.90;;;;;;;27.60;47.79;94622.66;5029315;28;20046;-65
2023/06/23 09:31:51;;;;;;;10.20;7.80;;;;;;;26.72;48.26;94625.47;5031957;28;20052;-61
2023/06/23 09:34:23;;;;;;;8.07;7.13;;;;;;;25.17;52.45;94631.63;5029156;28;20347;-61
2023/06/23 09:36:52;;;;;;;8.85;7.53;;;;;;;24.59;55.70;94637.06;5026878;28;20041;-61
2023/06/23 09:39:20;;;;;;;10.02;7.13;;;;;;;26.35;51.06;94629.84;5019546;28;20049;-62
2023/06/23 09:41:58;;;;;;;8.93;7.50;;;;;;;27.36;47.07;94634.44;5029653;28;20494;-62
2023/06/23 09:44:35;;;;;;;8.80;7.82;;;;;;;28.50;43.22;94631.13;5029109;28;20502;-62
2023/06/23 09:47:03;;;;;;;8.30;6.88;;;;;;;29.68;40.90;94624.97;5029471;28;20056;-64
2023/06/23 09:49:45;;;;;;;8.07;6.15;;;;;;;30.38;38.62;94624.66;5028958;28;20097;-66
2023/06/23 09:52:24;;;;;;;8.15;6.50;;;;;;;29.34;39.05;94624.41;5028892;28;20049;-62
2023/06/23 09:54:50;;;;;;;7.80;6.90;;;;;;;30.59;36.39;94629.88;5029826;28;20053;-62
2023/06/23 09:57:19;;;;;;;7.82;5.90;;;;;;;30.22;37.32;94620.69;5028817;28;20045;-62
2023/06/23 09:59:50;;;;;;;6.82;5.60;;;;;;;30.58;35.85;94614.94;5029069;28;20050;-66
2023/06/23 10:02:25;;;;;;;6.65;5.35;;;;;;;30.51;37.39;94618.38;5028634;28;20064;-61
2023/06/23 10:04:59;;;;;;;8.52;6.28;;;;;;;30.10;36.09;94613.56;5029480;28;20045;-62
2023/06/23 10:07:27;;;;;;;8.67;6.57;;;;;;;29.01;37.88;94608.34;5028601;28;20061;-64
2023/06/23 10:09:59;;;;;;;8.10;5.80;;;;;;;29.98;36.93;94623.47;5029243;28;20048;-61
2023/06/23 10:12:46;;;;;;;7.65;5.97;;;;;;;29.57;35.77;94615.78;5028610;28;20067;-62
2023/06/23 10:15:13;;;;;;;8.18;6.15;;;;;;;30.82;33.96;94616.97;5028521;28;20448;-65
2023/06/23 10:17:40;;;;;;;7.50;5.60;;;;;;;29.55;35.76;94626.84;5029211;28;20048;-61
2023/06/23 10:20:08;;;;;;;6.80;5.70;;;;;;;29.27;37.57;94616.47;5028524;28;20044;-64
2023/06/23 10:22:36;;;;;;;6.80;5.60;;;;;;;30.11;35.51;94617.19;5028941;28;20047;-60
2023/06/23 10:25:08;;;;;;;6.53;5.10;;;;;;;31.54;33.52;94625.13;5029048;28;20190;-60
2023/06/23 10:27:36;;;;;;;7.03;5.50;;;;;;;30.21;35.71;94636.13;5028232;28;21716;-63
2023/06/23 10:30:04;;;;;;;7.00;5.43;;;;;;;30.74;36.90;94633.03;5032429;28;20045;-62
2023/06/23 10:32:34;;;;;;;7.87;5.93;;;;;;;31.75;33.20;94622.47;5028411;28;20052;-61
2023/06/23 10:35:08;;;;;;;6.82;5.28;;;;;;;30.85;34.73;94630.09;5028971;28;20139;-60
2023/06/23 10:37:35;;;;;;;7.30;5.50;;;;;;;29.71;35.60;94625.19;5027668;28;20861;-60
2023/06/23 10:40:16;;;;;;;7.30;5.80;;;;;;;30.28;33.94;94623.44;5028127;28;20051;-60
2023/06/23 10:42:56;;;;;;;6.20;4.85;;;;;;;29.17;36.21;94618.06;5028513;28;20072;-60
2023/06/23 10:45:23;;;;;;;6.83;5.43;;;;;;;29.68;35.23;94622.13;5028023;28;20106;-60
2023/06/23 10:47:50;;;;;;;6.50;5.55;;;;;;;28.71;37.37;94622.34;5028619;28;20055;-61
2023/06/23 10:50:18;;;;;;;8.48;5.65;;;;;;;27.38;38.36;94624.16;5027994;28;20472;-63
2023/06/23 10:52:44;;;;;;;8.40;5.50;;;;;;;27.83;38.24;94624.22;5028224;28;20103;-61
2023/06/23 10:55:41;;;;;;;7.28;5.60;;;;;;;27.95;38.05;94622.22;5010291;28;20045;-61
2023/06/23 10:58:29;;;;;;;9.17;5.30;;;;;;;26.79;40.33;94619.38;5019230;28;20041;-64
2023/06/23 11:00:55;;;;;;;7.38;4.90;;;;;;;27.68;40.03;94621.66;5013563;28;20046;-61
2023/06/23 11:03:38;;;;;;;7.45;5.43;;;;;;;27.22;39.25;94614.38;5028006;28;20609;-61
2023/06/23 11:06:10;;;;;;;6.72;4.70;;;;;;;27.04;40.58;94621.22;5028794;28;20059;-66
2023/06/23 11:08:44;;;;;;;8.00;5.30;;;;;;;26.84;40.65;94613.75;5027298;28;20156;-64
2023/06/23 11:11:13;;;;;;;6.53;5.20;;;;;;;26.28;41.50;94619.09;5028221;28;20033;-61
2023/06/23 11:13:51;;;;;;;5.45;4.70;;;;;;;26.57;41.52;94614.38;5032474;28;20041;-65
2023/06/23 11:16:26;;;;;;;7.10;5.40;;;;;;;27.13;39.75;94616.66;5031814;28;20386;-61
2023/06/23 11:18:57;;;;;;;6.70;5.20;;;;;;;27.21;38.85;94598.75;5032187;28;20048;-61
2023/06/23 11:21:37;;;;;;;6.38;5.47;;;;;;;25.23;42.50;94607.19;5031775;28;20436;-61
2023/06/23 11:24:08;;;;;;;6.43;5.33;;;;;;;24.97;43.48;94616.38;5032544;28;20103;-61
2023/06/23 11:26:36;;;;;;;6.25;4.88;;;;;;;26.08;42.29;94612.31;5031378;28;20872;-61
2023/06/23 11:29:09;;;;;;;6.65;4.28;;;;;;;25.67;41.24;94622.94;5031044;28;20045;-61
2023/06/23 11:32:08;;;;;;;5.35;4.00;;;;;;;26.27;39.07;94618.28;5046456;28;20075;-65
2023/06/23 11:34:57;;;;;;;6.00;4.10;;;;;;;26.20;38.42;94615.16;5031459;28;20433;-64
2023/06/23 11:37:28;;;;;;;6.70;4.23;;;;;;;25.79;40.65;94618.94;5020366;28;20045;-61